Time;durP1;ratioP1;P1;durP2;ratioP2;P2;SDS_P1;SDS_P2;PMS_P1;PMS_P2;Temp;Humidity;BMP_temperature;BMP_pressure;BME280_temperature;BME280_humidity;BME280_pressure;Samples;Min_cycle;Max_cycle;Signal;HPM_P1;HPM_P2
2023/12/02 00:01:06;;;;;;;2.73;2.53;;;;;;;6.70;100.00;99204.81;5013779;28;20347;-78
2023/12/02 00:03:32;;;;;;;1.83;1.83;;;;;;;6.91;100.00;99232.63;5013451;28;20201;-78
2023/12/02 00:05:59;;;;;;;1.53;1.53;;;;;;;6.94;100.00;99218.09;5013398;28;20649;-79
2023/12/02 00:08:27;;;;;;;1.87;1.77;;;;;;;7.01;100.00;99218.16;5013586;28;20232;-78
2023/12/02 00:10:54;;;;;;;2.80;2.53;;;;;;;6.83;100.00;99193.00;5013243;28;20193;-78
2023/12/02 00:13:21;;;;;;;1.57;1.57;;;;;;;6.95;100.00;99216.38;5013845;28;20197;-78
2023/12/02 00:15:48;;;;;;;1.70;1.60;;;;;;;6.92;100.00;99221.50;5015947;28;20207;-78
2023/12/02 00:18:14;;;;;;;1.80;1.73;;;;;;;6.87;100.00;99225.69;5015012;28;20229;-78
2023/12/02 00:20:41;;;;;;;1.33;1.33;;;;;;;6.91;100.00;99233.50;5014965;28;20304;-78
2023/12/02 00:23:08;;;;;;;1.93;1.83;;;;;;;6.87;100.00;99205.94;5013889;28;20199;-79
2023/12/02 00:25:36;;;;;;;7.67;4.73;;;;;;;6.86;100.00;99198.19;5013315;28;20193;-78
2023/12/02 00:28:03;;;;;;;1.73;1.73;;;;;;;6.81;100.00;99200.69;5013693;28;20224;-78
2023/12/02 00:30:30;;;;;;;2.20;2.10;;;;;;;6.94;100.00;99219.78;5013500;28;20204;-78
2023/12/02 00:32:57;;;;;;;1.83;1.83;;;;;;;6.72;100.00;99189.38;5012555;28;20618;-78
2023/12/02 00:35:23;;;;;;;2.80;2.57;;;;;;;6.82;100.00;99207.56;5013305;28;20779;-78
2023/12/02 00:37:50;;;;;;;1.27;1.27;;;;;;;6.60;100.00;99190.03;5013340;28;20663;-78
2023/12/02 00:40:17;;;;;;;4.23;2.93;;;;;;;6.75;100.00;99221.19;5013695;28;20212;-78
2023/12/02 00:42:45;;;;;;;6.47;3.30;;;;;;;6.55;100.00;99201.13;5012508;28;20213;-77
2023/12/02 00:45:12;;;;;;;2.73;2.63;;;;;;;6.41;100.00;99209.50;5012789;28;20634;-77
2023/12/02 00:47:38;;;;;;;3.00;2.80;;;;;;;6.47;100.00;99201.84;5012710;28;20735;-77
2023/12/02 00:50:08;;;;;;;1.47;1.47;;;;;;;6.30;100.00;99166.38;5012931;28;20207;-78
2023/12/02 00:52:35;;;;;;;2.03;2.03;;;;;;;6.57;100.00;99214.88;5009834;28;20216;-77
2023/12/02 00:55:01;;;;;;;2.03;1.77;;;;;;;6.52;100.00;99196.78;5005642;28;20208;-78
2023/12/02 00:57:28;;;;;;;1.83;1.73;;;;;;;6.57;100.00;99189.13;5008387;28;20216;-78
2023/12/02 00:59:56;;;;;;;4.57;3.90;;;;;;;6.77;100.00;99213.50;5012856;28;20212;-78
2023/12/02 01:02:23;;;;;;;5.80;2.07;;;;;;;6.73;100.00;99214.31;5012016;28;20679;-78
2023/12/02 01:04:50;;;;;;;2.00;1.87;;;;;;;6.11;100.00;99106.00;5013011;28;20272;-78
2023/12/02 01:07:17;;;;;;;2.53;2.33;;;;;;;6.67;100.00;99212.47;5012298;28;20239;-78
2023/12/02 01:09:43;;;;;;;1.43;1.43;;;;;;;6.54;100.00;99183.94;5012925;28;20196;-78
2023/12/02 01:12:10;;;;;;;1.53;1.43;;;;;;;6.63;100.00;99197.84;5012497;28;20204;-78
2023/12/02 01:14:37;;;;;;;2.83;2.03;;;;;;;6.62;100.00;99202.94;5012674;28;20200;-78
2023/12/02 01:17:05;;;;;;;2.07;1.97;;;;;;;6.73;100.00;99212.59;5012602;28;20205;-78
2023/12/02 01:19:32;;;;;;;9.10;3.73;;;;;;;6.70;100.00;99211.69;5012474;28;20263;-78
2023/12/02 01:21:59;;;;;;;26.37;4.20;;;;;;;6.64;100.00;99207.28;5011941;28;20196;-78
2023/12/02 01:24:26;;;;;;;2.30;2.20;;;;;;;6.62;100.00;99208.09;5012230;28;20200;-78
2023/12/02 01:26:52;;;;;;;2.67;2.20;;;;;;;6.30;100.00;99176.66;5012045;28;20263;-78
2023/12/02 01:29:19;;;;;;;4.13;2.63;;;;;;;6.36;100.00;99185.34;5012303;28;20236;-78
2023/12/02 01:31:46;;;;;;;4.10;3.70;;;;;;;6.51;100.00;99209.63;5011868;28;20205;-78
2023/12/02 01:34:14;;;;;;;1.80;1.70;;;;;;;6.54;100.00;99204.53;5012245;28;20196;-78
2023/12/02 01:36:41;;;;;;;5.83;3.23;;;;;;;6.46;100.00;99205.25;5011080;28;20722;-78
2023/12/02 01:39:07;;;;;;;2.30;2.20;;;;;;;6.42;100.00;99216.34;5012474;28;20712;-78
2023/12/02 01:41:34;;;;;;;1.17;1.17;;;;;;;6.45;100.00;99215.56;5011938;28;20201;-78
2023/12/02 01:44:01;;;;;;;5.10;3.17;;;;;;;6.49;100.00;99213.03;5012243;28;20594;-78
2023/12/02 01:46:28;;;;;;;2.83;2.70;;;;;;;6.46;100.00;99214.69;5012064;28;20673;-78
2023/12/02 01:48:55;;;;;;;1.67;1.57;;;;;;;6.42;100.00;99200.91;5012069;28;20228;-78
2023/12/02 01:51:23;;;;;;;5.47;1.93;;;;;;;6.39;100.00;99185.41;5011614;28;20587;-78
2023/12/02 01:53:50;;;;;;;2.83;2.60;;;;;;;6.29;100.00;99183.53;5011894;28;20201;-78
2023/12/02 01:56:17;;;;;;;2.63;2.43;;;;;;;5.87;100.00;99115.88;5012290;28;20910;-78
2023/12/02 01:58:44;;;;;;;1.40;1.40;;;;;;;6.27;100.00;99186.91;5011864;28;20771;-78
2023/12/02 02:01:10;;;;;;;1.87;1.77;;;;;;;6.33;100.00;99190.47;5012027;28;20207;-77
2023/12/02 02:03:37;;;;;;;0.80;0.80;;;;;;;6.32;100.00;99201.59;5011751;28;20247;-78
2023/12/02 02:06:04;;;;;;;1.10;1.10;;;;;;;6.38;100.00;99195.69;5011331;28;20521;-78
2023/12/02 02:08:33;;;;;;;1.83;1.83;;;;;;;6.26;100.00;99172.31;5011641;28;20232;-78
2023/12/02 02:11:00;;;;;;;2.70;2.60;;;;;;;6.36;100.00;99190.50;5011179;28;20205;-77
2023/12/02 02:13:27;;;;;;;2.17;2.00;;;;;;;6.38;100.00;99204.28;5010943;28;20204;-78
2023/12/02 02:15:54;;;;;;;2.50;1.83;;;;;;;6.40;100.00;99192.28;5011868;28;20259;-79
2023/12/02 02:18:21;;;;;;;2.17;2.07;;;;;;;6.22;100.00;99191.09;5011427;28;20247;-76
2023/12/02 02:20:50;;;;;;;2.20;2.10;;;;;;;6.32;100.00;99190.41;5011388;28;20196;-78
2023/12/02 02:23:19;;;;;;;2.20;2.10;;;;;;;6.11;100.00;99142.03;5011044;28;20227;-78
2023/12/02 02:25:46;;;;;;;3.53;3.33;;;;;;;6.29;100.00;99173.22;5011539;28;20236;-78
2023/12/02 02:28:13;;;;;;;2.03;1.93;;;;;;;6.41;100.00;99173.44;5009308;28;20225;-77
2023/12/02 02:30:40;;;;;;;1.73;1.63;;;;;;;6.51;100.00;99158.13;5011831;28;20197;-78
2023/12/02 02:33:07;;;;;;;1.30;1.30;;;;;;;6.53;100.00;99147.00;5010867;28;20295;-76
2023/12/02 02:35:33;;;;;;;1.93;1.83;;;;;;;6.63;100.00;99148.03;5011729;28;20208;-78
2023/12/02 02:38:00;;;;;;;1.60;1.50;;;;;;;6.70;100.00;99149.88;5014178;28;20204;-77
2023/12/02 02:40:28;;;;;;;1.20;1.20;;;;;;;6.75;100.00;99137.91;5011564;28;20201;-78
2023/12/02 02:42:56;;;;;;;2.47;2.10;;;;;;;6.82;100.00;99160.34;5010683;28;20200;-79
2023/12/02 02:45:22;;;;;;;2.30;2.20;;;;;;;6.78;100.00;99146.53;5011273;28;20230;-79
2023/12/02 02:47:49;;;;;;;1.63;1.63;;;;;;;6.70;100.00;99149.88;5013121;28;20232;-78
2023/12/02 02:50:16;;;;;;;3.10;2.90;;;;;;;6.61;100.00;99152.28;5015061;28;20205;-77
2023/12/02 02:52:44;;;;;;;1.23;1.23;;;;;;;6.58;100.00;99119.63;5014574;28;20193;-77
2023/12/02 02:55:11;;;;;;;4.17;2.80;;;;;;;6.63;100.00;99148.03;5015547;28;20200;-77
2023/12/02 02:57:39;;;;;;;6.03;3.00;;;;;;;6.59;100.00;99136.81;5014843;28;20200;-77
2023/12/02 03:00:09;;;;;;;1.40;1.40;;;;;;;6.53;100.00;99141.84;5014847;28;20590;-77
2023/12/02 03:02:36;;;;;;;5.50;3.77;;;;;;;6.38;100.00;99126.19;5014242;28;20207;-78
2023/12/02 03:05:04;;;;;;;1.53;1.43;;;;;;;6.35;100.00;99137.28;5014744;28;20591;-77
2023/12/02 03:07:31;;;;;;;6.40;2.67;;;;;;;6.28;100.00;99145.75;5014266;28;20227;-77
2023/12/02 03:09:57;;;;;;;2.23;2.13;;;;;;;6.36;100.00;99139.03;5014422;28;20287;-77
2023/12/02 03:12:24;;;;;;;2.00;1.97;;;;;;;6.37;100.00;99140.75;5014518;28;20208;-77
2023/12/02 03:14:53;;;;;;;2.47;1.67;;;;;;;6.47;100.00;99134.91;4979951;28;20200;-77
2023/12/02 03:17:20;;;;;;;1.00;1.00;;;;;;;6.30;100.00;99095.19;5013830;28;20212;-77
2023/12/02 03:19:47;;;;;;;4.27;1.63;;;;;;;6.47;100.00;99141.78;5014398;28;20233;-77
2023/12/02 03:22:14;;;;;;;2.97;2.83;;;;;;;6.55;100.00;99163.38;5011764;28;20311;-78
2023/12/02 03:24:41;;;;;;;2.03;2.03;;;;;;;6.63;100.00;99158.34;5014311;28;20208;-77
2023/12/02 03:27:08;;;;;;;1.60;1.60;;;;;;;6.74;100.00;99151.66;5014078;28;20189;-77
2023/12/02 03:29:35;;;;;;;5.77;3.43;;;;;;;6.71;100.00;99146.41;5014092;28;20228;-78
2023/12/02 03:32:04;;;;;;;6.80;3.03;;;;;;;6.77;100.00;99141.38;5014523;28;20203;-78
2023/12/02 03:34:31;;;;;;;1.43;1.43;;;;;;;6.72;100.00;99153.31;5014021;28;20391;-77
2023/12/02 03:36:58;;;;;;;1.93;1.93;;;;;;;6.71;100.00;99146.41;5013726;28;20215;-78
2023/12/02 03:39:24;;;;;;;2.40;2.30;;;;;;;6.48;100.00;99126.34;5014169;28;20205;-76
2023/12/02 03:41:51;;;;;;;2.37;2.27;;;;;;;6.60;100.00;99142.84;5013346;28;20208;-76
2023/12/02 03:44:18;;;;;;;3.00;2.77;;;;;;;6.61;100.00;99136.81;5013761;28;20205;-76
2023/12/02 03:46:45;;;;;;;1.73;1.73;;;;;;;6.58;100.00;99137.66;5013214;28;20205;-75
2023/12/02 03:49:13;;;;;;;2.67;1.93;;;;;;;6.35;100.00;99116.69;5013840;28;20225;-76
2023/12/02 03:51:40;;;;;;;1.23;1.23;;;;;;;6.54;100.00;99155.59;5013397;28;20205;-75
2023/12/02 03:54:07;;;;;;;2.00;1.90;;;;;;;6.59;100.00;99141.97;4978819;28;20205;-76
2023/12/02 03:56:34;;;;;;;1.13;1.13;;;;;;;6.54;100.00;99137.56;5013619;28;20197;-77
2023/12/02 03:59:01;;;;;;;2.50;2.33;;;;;;;6.30;100.00;99097.75;4994663;28;20212;-77
2023/12/02 04:01:27;;;;;;;1.37;1.37;;;;;;;6.44;100.00;99109.13;5013576;28;20613;-76
2023/12/02 04:03:54;;;;;;;5.00;3.53;;;;;;;6.38;100.00;99103.91;4975264;28;20209;-76
2023/12/02 04:06:22;;;;;;;2.03;2.00;;;;;;;6.42;100.00;99100.50;5005527;28;20205;-76
2023/12/02 04:08:49;;;;;;;3.33;3.03;;;;;;;6.30;100.00;99099.44;5013609;28;20224;-77
2023/12/02 04:11:16;;;;;;;3.60;2.37;;;;;;;6.23;100.00;99075.31;5013525;28;20200;-79
2023/12/02 04:13:42;;;;;;;2.93;2.67;;;;;;;6.31;100.00;99096.88;5013607;28;20618;-76
2023/12/02 04:16:10;;;;;;;2.17;1.93;;;;;;;6.37;100.00;99102.16;5012930;28;20227;-77
2023/12/02 04:18:37;;;;;;;1.87;1.53;;;;;;;6.37;100.00;99089.28;5012997;28;20240;-76
2023/12/02 04:21:08;;;;;;;2.40;2.23;;;;;;;6.36;100.00;99082.38;4981838;28;20201;-77
2023/12/02 04:23:36;;;;;;;1.97;1.30;;;;;;;6.42;100.00;99095.34;5012189;28;20733;-78
2023/12/02 04:26:03;;;;;;;1.87;1.77;;;;;;;5.82;100.00;98988.84;5012829;28;20229;-76
2023/12/02 04:28:30;;;;;;;2.27;2.17;;;;;;;6.38;100.00;99096.16;5012605;28;20224;-77
2023/12/02 04:30:57;;;;;;;2.20;2.07;;;;;;;6.40;100.00;99104.78;5012846;28;20205;-76
2023/12/02 04:33:23;;;;;;;1.60;1.60;;;;;;;6.46;100.00;99096.25;5012466;28;20196;-76
2023/12/02 04:35:50;;;;;;;1.47;1.40;;;;;;;6.45;100.00;99091.97;5012553;28;20200;-76
2023/12/02 04:38:17;;;;;;;1.47;1.37;;;;;;;6.26;100.00;99085.66;5012846;28;20661;-77
2023/12/02 04:40:46;;;;;;;2.03;1.93;;;;;;;6.14;100.00;99075.16;5012751;28;20200;-75
2023/12/02 04:43:12;;;;;;;6.00;2.77;;;;;;;6.38;100.00;99126.19;5012253;28;20196;-77
2023/12/02 04:45:39;;;;;;;2.63;2.53;;;;;;;6.24;100.00;99120.78;5012366;28;20201;-77
2023/12/02 04:48:07;;;;;;;1.90;1.80;;;;;;;6.15;100.00;99123.22;5012358;28;20200;-77
2023/12/02 04:50:34;;;;;;;1.10;1.10;;;;;;;5.98;100.00;99097.22;5012292;28;20200;-76
2023/12/02 04:53:00;;;;;;;2.77;2.53;;;;;;;6.09;100.00;99117.97;5011891;28;20204;-76
2023/12/02 04:55:27;;;;;;;2.07;1.93;;;;;;;6.08;100.00;99129.09;5011772;28;20205;-76
2023/12/02 04:57:55;;;;;;;2.00;1.90;;;;;;;5.99;100.00;99105.81;5011754;28;20204;-76
2023/12/02 05:00:22;;;;;;;1.83;1.73;;;;;;;6.02;100.00;99111.00;5012656;28;20201;-77
2023/12/02 05:02:49;;;;;;;2.13;2.03;;;;;;;5.95;100.00;99119.44;5011845;28;20203;-77
2023/12/02 05:05:16;;;;;;;1.23;1.23;;;;;;;5.95;100.00;99114.31;5012107;28;20200;-76
2023/12/02 05:07:43;;;;;;;1.20;1.20;;;;;;;5.86;100.00;99130.44;5011282;28;20280;-76
2023/12/02 05:10:11;;;;;;;1.80;1.80;;;;;;;5.66;100.00;99085.47;5011317;28;20235;-76
2023/12/02 05:12:38;;;;;;;5.83;3.13;;;;;;;5.71;100.00;99103.53;5011011;28;20721;-75
2023/12/02 05:15:09;;;;;;;1.70;1.70;;;;;;;5.62;100.00;99113.66;5008616;28;20197;-76
2023/12/02 05:17:35;;;;;;;2.43;2.33;;;;;;;5.60;100.00;99081.91;5008452;28;20205;-77
2023/12/02 05:20:02;;;;;;;2.10;2.00;;;;;;;5.75;100.00;99124.19;5011213;28;20235;-76
2023/12/02 05:22:29;;;;;;;2.83;2.40;;;;;;;5.78;100.00;99111.38;5012409;28;20193;-77
2023/12/02 05:24:56;;;;;;;1.63;1.63;;;;;;;5.50;100.00;99094.56;5011134;28;20205;-77
2023/12/02 05:27:23;;;;;;;3.43;3.20;;;;;;;5.68;100.00;99111.19;5011516;28;20208;-77
2023/12/02 05:29:49;;;;;;;16.60;5.07;;;;;;;5.63;100.00;99094.81;4992307;28;20309;-77
2023/12/02 05:32:17;;;;;;;1.73;1.73;;;;;;;5.78;100.00;99090.81;4992131;28;20201;-77
2023/12/02 05:34:44;;;;;;;2.03;1.93;;;;;;;5.65;100.00;99073.44;5011306;28;20193;-77
2023/12/02 05:37:11;;;;;;;1.53;1.53;;;;;;;5.82;100.00;99091.72;5011249;28;20715;-78
2023/12/02 05:39:38;;;;;;;1.77;1.70;;;;;;;5.79;100.00;99100.25;5011363;28;20708;-77
2023/12/02 05:42:05;;;;;;;1.10;1.10;;;;;;;5.78;100.00;99097.69;5011403;28;20685;-78
2023/12/02 05:44:31;;;;;;;10.97;7.57;;;;;;;5.74;100.00;99093.31;5017656;28;20215;-78
2023/12/02 05:46:58;;;;;;;3.70;3.47;;;;;;;5.81;100.00;99100.31;5018047;28;20201;-77
2023/12/02 05:49:26;;;;;;;3.57;3.27;;;;;;;5.77;100.00;99090.78;5010927;28;20224;-77
2023/12/02 05:51:53;;;;;;;6.33;3.10;;;;;;;5.79;100.00;99112.25;5004388;28;20194;-75
2023/12/02 05:54:20;;;;;;;2.23;2.23;;;;;;;5.85;100.00;99107.25;5011040;28;20197;-75
2023/12/02 05:56:47;;;;;;;1.30;1.30;;;;;;;5.92;100.00;99107.38;5010387;28;20618;-75
2023/12/02 05:59:13;;;;;;;6.20;5.80;;;;;;;5.80;100.00;99098.56;5007744;28;20201;-77
2023/12/02 06:01:40;;;;;;;3.67;3.33;;;;;;;5.69;100.00;99054.66;5009964;28;20201;-75
2023/12/02 06:04:07;;;;;;;4.97;4.67;;;;;;;5.78;100.00;99065.09;5010193;28;20188;-76
2023/12/02 06:06:35;;;;;;;1.60;1.60;;;;;;;5.96;100.00;99074.84;5010102;28;20197;-75
2023/12/02 06:09:02;;;;;;;5.60;3.13;;;;;;;5.97;100.00;99056.88;5010727;28;20220;-77
2023/12/02 06:11:29;;;;;;;2.30;2.20;;;;;;;6.23;100.00;99059.88;4999735;28;20235;-77
2023/12/02 06:13:56;;;;;;;3.67;3.40;;;;;;;6.31;100.00;99084.00;5010718;28;20212;-78
2023/12/02 06:16:23;;;;;;;2.90;2.80;;;;;;;6.16;100.00;99049.47;5011418;28;20553;-77
2023/12/02 06:18:49;;;;;;;3.57;3.37;;;;;;;6.61;100.00;99077.59;5012059;28;20249;-77
2023/12/02 06:21:16;;;;;;;3.13;3.00;;;;;;;6.64;100.00;99067.34;5011105;28;20248;-75
2023/12/02 06:23:44;;;;;;;1.47;1.47;;;;;;;6.51;100.00;99070.59;5010327;28;20208;-77
2023/12/02 06:26:11;;;;;;;2.47;2.37;;;;;;;6.62;100.00;99089.66;5010902;28;20208;-83
2023/12/02 06:28:38;;;;;;;4.10;2.97;;;;;;;6.49;100.00;99063.69;5011469;28;20196;-84
2023/12/02 06:31:05;;;;;;;2.03;1.93;;;;;;;6.54;100.00;99084.38;5010392;28;20726;-71
2023/12/02 06:33:31;;;;;;;3.10;2.90;;;;;;;6.46;100.00;99058.50;5006609;28;20626;-71
2023/12/02 06:35:59;;;;;;;2.40;1.90;;;;;;;6.68;100.00;99093.16;4996570;28;20567;-72
2023/12/02 06:38:26;;;;;;;6.73;3.23;;;;;;;6.83;100.00;99105.41;4980196;28;20292;-80
2023/12/02 06:40:55;;;;;;;3.33;3.20;;;;;;;6.73;100.00;99064.91;4975720;28;20223;-78
2023/12/02 06:43:21;;;;;;;2.07;1.97;;;;;;;7.03;100.00;99087.66;4997936;28;20243;-72
2023/12/02 06:45:48;;;;;;;6.53;2.40;;;;;;;7.08;100.00;99091.13;5004056;28;20204;-77
2023/12/02 06:48:15;;;;;;;1.87;1.77;;;;;;;7.12;100.00;99092.91;5008402;28;20212;-77
2023/12/02 06:50:42;;;;;;;2.37;2.27;;;;;;;6.97;100.00;99053.22;5010056;28;20232;-77
2023/12/02 06:53:11;;;;;;;2.80;2.60;;;;;;;7.15;100.00;99088.66;5009376;28;20205;-77
2023/12/02 06:55:38;;;;;;;2.20;2.13;;;;;;;7.22;100.00;99069.84;5009531;28;20243;-76
2023/12/02 06:58:06;;;;;;;3.37;3.17;;;;;;;7.55;100.00;99091.69;5009566;28;20201;-79
2023/12/02 07:00:33;;;;;;;4.87;3.00;;;;;;;7.71;100.00;99091.00;5009144;28;20196;-79
2023/12/02 07:03:00;;;;;;;3.20;2.80;;;;;;;7.83;100.00;99089.44;5010669;28;20205;-76
2023/12/02 07:05:27;;;;;;;2.97;2.77;;;;;;;7.93;100.00;99083.50;4973617;28;20291;-76
2023/12/02 07:07:53;;;;;;;3.13;2.80;;;;;;;7.99;100.00;99078.38;5002423;28;20200;-75
2023/12/02 07:10:20;;;;;;;2.43;2.33;;;;;;;8.05;100.00;99087.91;5011326;28;20225;-76
2023/12/02 07:12:47;;;;;;;2.03;1.93;;;;;;;7.81;100.00;99100.59;5009070;28;20456;-72
2023/12/02 07:15:15;;;;;;;1.53;1.53;;;;;;;7.89;100.00;99097.22;5008972;28;20197;-76
2023/12/02 07:17:42;;;;;;;1.87;1.77;;;;;;;7.73;100.00;99089.31;5009146;28;20217;-75
2023/12/02 07:20:09;;;;;;;1.90;1.80;;;;;;;8.03;100.00;99089.59;4973973;28;20235;-76
2023/12/02 07:22:36;;;;;;;2.60;2.50;;;;;;;8.07;100.00;99093.94;5009492;28;20245;-76
2023/12/02 07:25:04;;;;;;;1.97;1.87;;;;;;;8.41;100.00;99090.84;5008876;28;20224;-73
2023/12/02 07:27:31;;;;;;;3.00;2.80;;;;;;;8.28;100.00;99099.31;5009508;28;20603;-73
2023/12/02 07:29:57;;;;;;;2.27;2.20;;;;;;;8.41;100.00;99093.41;5009269;28;20717;-77
2023/12/02 07:32:26;;;;;;;2.17;1.97;;;;;;;8.55;100.00;99110.72;5002017;28;20209;-75
2023/12/02 07:34:53;;;;;;;1.93;1.87;;;;;;;8.34;100.00;99107.13;4986109;28;20205;-74
2023/12/02 07:37:19;;;;;;;1.47;1.47;;;;;;;8.66;100.00;99119.44;5010041;28;20213;-77
2023/12/02 07:39:46;;;;;;;2.03;2.03;;;;;;;8.69;100.00;99125.47;5012884;28;20216;-78
2023/12/02 07:42:13;;;;;;;3.07;2.47;;;;;;;8.60;100.00;99132.28;5012260;28;20678;-76
2023/12/02 07:44:40;;;;;;;3.00;2.10;;;;;;;8.59;100.00;99152.13;5010329;28;20213;-78
2023/12/02 07:47:06;;;;;;;1.97;1.87;;;;;;;8.69;100.00;99140.13;5011258;28;20216;-75
2023/12/02 07:49:35;;;;;;;3.27;3.03;;;;;;;7.57;100.00;99030.66;5012160;28;20336;-76
2023/12/02 07:52:01;;;;;;;2.63;2.43;;;;;;;8.27;100.00;99133.72;5016259;28;20208;-76
2023/12/02 07:54:28;;;;;;;1.93;1.93;;;;;;;8.35;100.00;99144.13;5009992;28;20703;-77
2023/12/02 07:56:55;;;;;;;11.83;4.27;;;;;;;8.41;100.00;99150.25;5002851;28;20209;-78
2023/12/02 07:59:22;;;;;;;1.83;1.83;;;;;;;8.01;100.00;99106.81;4978499;28;20200;-76
2023/12/02 08:01:48;;;;;;;4.27;2.70;;;;;;;8.48;100.00;99142.53;4978544;28;20616;-76
2023/12/02 08:04:15;;;;;;;4.77;3.23;;;;;;;8.87;100.00;99142.84;5011625;28;20201;-79
2023/12/02 08:06:43;;;;;;;3.33;3.03;;;;;;;8.85;100.00;99127.28;4993584;28;20197;-79
2023/12/02 08:09:14;;;;;;;2.47;2.27;;;;;;;9.08;100.00;99155.03;4980907;28;20189;-79
2023/12/02 08:11:41;;;;;;;2.90;2.70;;;;;;;9.08;100.00;99155.03;5013678;28;21086;-79
2023/12/02 08:14:08;;;;;;;3.10;2.83;;;;;;;9.30;100.00;99131.88;5013190;28;20207;-79
2023/12/02 08:16:35;;;;;;;1.97;1.73;;;;;;;8.59;100.00;99156.41;5013604;28;20200;-78
2023/12/02 08:19:02;;;;;;;22.03;3.20;;;;;;;8.98;100.00;99168.75;5013493;28;20232;-78
2023/12/02 08:21:28;;;;;;;2.97;2.77;;;;;;;8.78;100.00;99166.88;5012652;28;20215;-78
2023/12/02 08:23:56;;;;;;;4.13;3.00;;;;;;;8.72;100.00;99171.13;5013047;28;20271;-78
2023/12/02 08:26:24;;;;;;;3.27;3.07;;;;;;;8.69;100.00;99164.25;4994725;28;20197;-77
2023/12/02 08:28:51;;;;;;;4.97;4.40;;;;;;;8.95;100.00;99123.06;5012918;28;20661;-79
2023/12/02 08:31:18;;;;;;;4.73;4.43;;;;;;;9.69;100.00;99148.41;5012808;28;20238;-78
2023/12/02 08:33:44;;;;;;;1.63;1.63;;;;;;;9.31;100.00;99122.41;5012966;28;20200;-78
2023/12/02 08:36:12;;;;;;;2.03;1.97;;;;;;;9.64;100.00;99157.88;4978109;28;20707;-77
2023/12/02 08:38:38;;;;;;;4.67;3.30;;;;;;;9.58;100.00;99130.25;4978438;28;20208;-77
2023/12/02 08:41:07;;;;;;;2.70;2.50;;;;;;;9.66;100.00;99125.97;5012792;28;20205;-78
2023/12/02 08:43:34;;;;;;;2.63;2.53;;;;;;;9.65;100.00;99155.31;4978353;28;20227;-77
2023/12/02 08:46:01;;;;;;;2.83;2.70;;;;;;;9.76;100.00;99157.94;5011776;28;20276;-76
2023/12/02 08:48:28;;;;;;;5.57;4.03;;;;;;;9.90;100.00;99141.56;5012330;28;20209;-77
2023/12/02 08:50:54;;;;;;;3.70;3.50;;;;;;;9.88;100.00;99129.50;5000375;28;20314;-77
2023/12/02 08:53:21;;;;;;;3.73;3.47;;;;;;;9.97;100.00;99126.91;4992938;28;20212;-75
2023/12/02 08:55:48;;;;;;;6.00;5.47;;;;;;;10.01;100.00;99107.94;5008549;28;20201;-77
2023/12/02 08:58:16;;;;;;;4.27;3.87;;;;;;;10.32;100.00;99119.22;4964870;28;20194;-77
2023/12/02 09:00:43;;;;;;;10.73;6.43;;;;;;;10.33;100.00;99101.09;5007217;28;20212;-75
2023/12/02 09:03:10;;;;;;;2.30;2.20;;;;;;;10.47;100.00;99127.00;5010761;28;20204;-74
2023/12/02 09:05:37;;;;;;;2.75;2.65;;;;;;;10.71;100.00;99123.53;4992695;28;20204;-78
2023/12/02 09:08:04;;;;;;;9.43;5.60;;;;;;;10.77;100.00;99063.91;4997315;28;20212;-78
2023/12/02 09:10:31;;;;;;;7.57;2.75;;;;;;;11.23;100.00;99099.22;5011046;28;20228;-78
2023/12/02 09:12:58;;;;;;;3.88;3.58;;;;;;;11.48;100.00;99104.31;5011142;28;20216;-77
2023/12/02 09:15:47;;;;;;;3.95;3.58;;;;;;;11.42;100.00;99115.56;4992760;28;20626;-78
2023/12/02 09:18:14;;;;;;;5.93;4.30;;;;;;;11.47;100.00;99087.88;4950160;29;20293;-78
2023/12/02 09:20:46;;;;;;;8.88;6.88;;;;;;;11.55;100.00;99083.50;4913533;29;20215;-79
2023/12/02 09:23:14;;;;;;;4.07;3.83;;;;;;;11.18;100.00;99041.28;4931059;29;20208;-77
2023/12/02 09:25:42;;;;;;;4.03;3.15;;;;;;;11.49;100.00;99049.78;4950387;28;20203;-81
2023/12/02 09:28:19;;;;;;;4.68;4.38;;;;;;;11.50;100.00;99061.03;4950891;28;20290;-79
2023/12/02 09:31:01;;;;;;;4.25;3.85;;;;;;;11.48;100.00;99067.97;4949970;28;20226;-80
2023/12/02 09:33:29;;;;;;;3.13;2.83;;;;;;;10.94;100.00;99067.31;4926959;29;20216;-77
2023/12/02 09:35:57;;;;;;;9.25;3.80;;;;;;;10.91;100.00;99065.56;4950411;28;20707;-79
2023/12/02 09:38:24;;;;;;;2.95;2.80;;;;;;;10.82;100.00;99044.00;4914993;29;20215;-80
2023/12/02 09:41:06;;;;;;;4.03;3.50;;;;;;;10.99;100.00;99036.19;4946041;28;20218;-80
2023/12/02 09:43:38;;;;;;;8.55;3.53;;;;;;;11.00;100.00;99038.75;4914240;29;20203;-79
2023/12/02 09:46:17;;;;;;;3.65;3.45;;;;;;;11.06;100.00;99035.28;4894804;29;20218;-79
2023/12/02 09:48:53;;;;;;;1.95;1.85;;;;;;;11.12;100.00;99038.72;4939743;28;20206;-79
2023/12/02 09:51:34;;;;;;;5.88;4.18;;;;;;;11.07;100.00;99031.81;4939203;28;20749;-78
2023/12/02 09:54:10;;;;;;;2.13;2.08;;;;;;;11.23;100.00;99021.38;4945265;29;20207;-79
2023/12/02 09:56:40;;;;;;;2.07;1.97;;;;;;;11.24;100.00;99019.63;5011014;28;20216;-78
2023/12/02 09:59:15;;;;;;;2.75;2.67;;;;;;;11.34;100.00;98965.06;5008507;28;20221;-77
2023/12/02 10:01:48;;;;;;;3.42;2.22;;;;;;;11.48;100.00;98953.75;5005749;28;20247;-78
2023/12/02 10:04:30;;;;;;;3.30;3.17;;;;;;;11.39;100.00;98902.78;5011088;28;20571;-79
2023/12/02 10:07:02;;;;;;;3.28;3.08;;;;;;;11.74;100.00;98910.31;5010986;28;20597;-79
2023/12/02 10:09:44;;;;;;;2.08;1.98;;;;;;;12.52;100.00;98913.00;5011181;28;20212;-78
2023/12/02 10:12:30;;;;;;;2.28;2.17;;;;;;;12.84;100.00;98963.72;5010892;28;20770;-79
2023/12/02 10:15:01;;;;;;;2.85;2.70;;;;;;;11.77;100.00;98972.63;5010911;28;20248;-77
2023/12/02 10:17:37;;;;;;;1.65;1.55;;;;;;;12.05;100.00;98948.13;5001894;28;20283;-78
2023/12/02 10:20:09;;;;;;;1.25;1.25;;;;;;;13.54;100.00;98982.78;5010158;28;20256;-69
2023/12/02 10:22:44;;;;;;;0.70;0.70;;;;;;;14.66;100.00;99036.56;4970135;28;20680;-76
2023/12/02 10:25:20;;;;;;;2.38;2.20;;;;;;;14.75;100.00;99057.28;4969194;28;20228;-76
2023/12/02 10:27:50;;;;;;;3.40;3.20;;;;;;;13.88;100.00;99030.91;4977264;28;20211;-72
2023/12/02 10:30:19;;;;;;;2.05;2.05;;;;;;;14.00;100.00;99056.78;5009118;28;20228;-76
2023/12/02 10:33:03;;;;;;;2.35;2.22;;;;;;;13.06;100.00;99033.72;5009583;28;20196;-75
2023/12/02 10:35:36;;;;;;;2.78;2.58;;;;;;;12.71;100.00;99045.38;5009556;28;20203;-75
2023/12/02 10:38:13;;;;;;;3.40;3.13;;;;;;;12.66;100.00;99049.78;5009543;28;20201;-76
2023/12/02 10:40:47;;;;;;;6.63;4.88;;;;;;;12.61;100.00;99035.09;5005642;28;20244;-77
2023/12/02 10:43:22;;;;;;;3.88;3.55;;;;;;;12.61;100.00;99042.91;4984700;28;20197;-80
2023/12/02 10:45:49;;;;;;;5.57;4.97;;;;;;;12.29;100.00;99044.06;4972458;28;20212;-80
2023/12/02 10:48:18;;;;;;;4.47;4.10;;;;;;;12.41;100.00;98978.13;5007699;28;20212;-80
2023/12/02 10:50:46;;;;;;;1.10;1.10;;;;;;;13.91;100.00;99056.94;4997178;28;20221;-78
2023/12/02 10:53:19;;;;;;;1.73;1.70;;;;;;;14.94;100.00;99078.69;5003137;28;20219;-79
2023/12/02 10:55:50;;;;;;;10.05;2.97;;;;;;;14.48;99.63;99085.59;5002713;28;20287;-78
2023/12/02 10:58:18;;;;;;;6.43;3.78;;;;;;;13.77;100.00;99038.00;4996972;28;20237;-77
2023/12/02 11:00:53;;;;;;;1.90;1.83;;;;;;;13.86;100.00;99006.63;5005449;28;20208;-76
2023/12/02 11:03:28;;;;;;;0.93;0.93;;;;;;;14.66;100.00;99007.03;5003066;28;20255;-75
2023/12/02 11:06:04;;;;;;;0.80;0.80;;;;;;;15.52;100.00;98996.59;5009971;28;20223;-75
2023/12/02 11:08:48;;;;;;;1.23;1.23;;;;;;;16.05;95.45;98962.16;4987963;28;20197;-76
2023/12/02 11:11:30;;;;;;;1.80;0.95;;;;;;;16.18;88.68;98900.81;5008730;28;20334;-75
2023/12/02 11:14:01;;;;;;;1.42;1.42;;;;;;;16.91;87.87;98934.63;5011470;28;20223;-78
2023/12/02 11:16:34;;;;;;;0.60;0.60;;;;;;;16.89;87.63;98886.66;5013247;28;20280;-75
2023/12/02 11:19:24;;;;;;;0.70;0.70;;;;;;;17.12;87.55;98882.44;5013216;28;20685;-76
2023/12/02 11:22:12;;;;;;;3.20;1.00;;;;;;;17.19;87.34;98881.34;5012100;28;20285;-76
2023/12/02 11:24:54;;;;;;;1.08;1.08;;;;;;;17.37;87.26;98889.56;5013536;28;20216;-76
2023/12/02 11:27:33;;;;;;;0.80;0.80;;;;;;;17.42;84.56;98995.06;5002608;28;20211;-75
2023/12/02 11:30:18;;;;;;;1.60;1.50;;;;;;;15.90;88.58;99041.00;5012998;28;20232;-78
2023/12/02 11:32:57;;;;;;;2.22;2.08;;;;;;;14.28;100.00;99011.13;5010852;28;20270;-78
2023/12/02 11:35:32;;;;;;;2.58;2.45;;;;;;;14.07;100.00;99023.66;5010440;28;20204;-76
2023/12/02 11:38:07;;;;;;;3.15;1.83;;;;;;;14.16;100.00;99016.53;5005139;28;20216;-72